createdAt,value
2019-01-31T00:00:04.569Z,-4.20
2019-01-31T00:01:30.718Z,-4.20
2019-01-31T00:02:41.909Z,-4.10
2019-01-31T00:04:06.097Z,-4.00
2019-01-31T00:05:01.020Z,-4.00
2019-01-31T00:06:00.184Z,-4.00
2019-01-31T00:07:31.416Z,-4.10
2019-01-31T00:08:28.996Z,-4.10
2019-01-31T00:09:38.802Z,-4.00
2019-01-31T00:10:24.673Z,-4.00
2019-01-31T00:11:40.807Z,-4.00
2019-01-31T00:12:48.165Z,-4.00
2019-01-31T00:13:59.919Z,-4.00
2019-01-31T00:15:02.200Z,-4.00
2019-01-31T00:16:27.373Z,-3.90
2019-01-31T00:17:25.650Z,-3.90
2019-01-31T00:18:24.724Z,-3.90
2019-01-31T00:19:14.774Z,-3.90
2019-01-31T00:20:17.309Z,-3.80
2019-01-31T00:21:20.676Z,-3.80
2019-01-31T00:22:32.560Z,-3.80
2019-01-31T00:23:30.219Z,-3.70
2019-01-31T00:24:32.780Z,-3.70
2019-01-31T00:25:25.064Z,-3.70
2019-01-31T00:26:34.743Z,-3.70
2019-01-31T00:27:44.981Z,-3.70
2019-01-31T00:28:58.450Z,-3.70
2019-01-31T00:29:55.964Z,-3.60
2019-01-31T00:31:10.687Z,-3.70
2019-01-31T00:32:25.735Z,-3.70
2019-01-31T00:33:29.034Z,-3.60
2019-01-31T00:35:00.362Z,-3.70
2019-01-31T00:35:56.934Z,-3.70
2019-01-31T00:37:02.902Z,-3.70
2019-01-31T00:37:45.296Z,-3.70
2019-01-31T00:38:56.516Z,-3.80
2019-01-31T00:40:01.738Z,-3.80
2019-01-31T00:41:12.515Z,-3.70
2019-01-31T00:42:28.907Z,-3.70
2019-01-31T00:43:43.843Z,-3.60
2019-01-31T00:45:18.347Z,-3.60
2019-01-31T00:46:40.191Z,-3.60
2019-01-31T00:47:43.266Z,-3.60
2019-01-31T00:48:44.565Z,-3.50
2019-01-31T00:50:02.505Z,-3.50
2019-01-31T00:50:53.030Z,-3.50
2019-01-31T00:51:37.131Z,-3.50
2019-01-31T00:52:32.547Z,-3.40
2019-01-31T00:53:29.121Z,-3.40
2019-01-31T00:54:27.774Z,-3.40
2019-01-31T00:55:31.295Z,-3.40
2019-01-31T00:56:36.270Z,-3.30
2019-01-31T00:57:24.417Z,-3.30
2019-01-31T00:58:14.919Z,-3.30
2019-01-31T00:59:28.938Z,-3.30
2019-01-31T01:00:34.399Z,-3.30
2019-01-31T01:01:28.736Z,-3.30
2019-01-31T01:02:30.549Z,-3.30
2019-01-31T01:03:49.994Z,-3.30
2019-01-31T01:05:21.265Z,-3.20
2019-01-31T01:06:29.974Z,-3.20
2019-01-31T01:07:42.454Z,-3.20
2019-01-31T01:08:46.640Z,-3.20
2019-01-31T01:10:09.530Z,-3.10
2019-01-31T01:11:10.524Z,-3.10
2019-01-31T01:12:21.271Z,-3.10
2019-01-31T01:13:28.399Z,-3.10
2019-01-31T01:14:49.873Z,-3.10
2019-01-31T01:15:33.482Z,-3.10
2019-01-31T01:16:40.019Z,-3.10
2019-01-31T01:17:30.078Z,-3.00
2019-01-31T01:18:20.056Z,-3.10
2019-01-31T01:19:53.603Z,-3.10
2019-01-31T01:21:06.704Z,-3.00
2019-01-31T01:22:13.695Z,-3.00
2019-01-31T01:23:17.704Z,-3.10
2019-01-31T01:24:19.435Z,-3.10
2019-01-31T01:25:47.382Z,-3.10
2019-01-31T01:26:39.107Z,-3.10
2019-01-31T01:27:21.590Z,-3.10
2019-01-31T01:28:25.322Z,-3.10
2019-01-31T01:29:20.625Z,-3.10
2019-01-31T01:30:14.767Z,-3.10
2019-01-31T01:31:37.077Z,-3.10
2019-01-31T01:33:05.361Z,-3.00
2019-01-31T01:34:27.486Z,-3.10
2019-01-31T01:35:42.460Z,-3.10
2019-01-31T01:36:40.710Z,-3.10
2019-01-31T01:38:01.208Z,-3.10
2019-01-31T01:39:21.984Z,-3.10
2019-01-31T01:40:29.362Z,-3.10
2019-01-31T01:41:54.663Z,-3.20
2019-01-31T01:43:10.026Z,-3.20
2019-01-31T01:44:08.597Z,-3.20
2019-01-31T01:45:31.037Z,-3.20
2019-01-31T01:46:46.606Z,-3.20
2019-01-31T01:47:43.544Z,-3.10
2019-01-31T01:48:49.290Z,-3.10
2019-01-31T01:49:47.998Z,-3.10
2019-01-31T01:50:29.159Z,-3.00
2019-01-31T01:51:31.385Z,-3.00
2019-01-31T01:52:30.401Z,-3.00
2019-01-31T01:53:46.743Z,-3.00
2019-01-31T01:54:51.603Z,-3.00
2019-01-31T01:56:00.101Z,-2.90
2019-01-31T01:56:52.602Z,-2.90
2019-01-31T01:58:27.023Z,-2.90
2019-01-31T01:59:23.312Z,-2.90
2019-01-31T02:00:19.400Z,-2.90
2019-01-31T02:01:44.249Z,-2.80
2019-01-31T02:02:55.932Z,-2.80
2019-01-31T02:03:56.555Z,-2.80
2019-01-31T02:05:13.986Z,-2.80
2019-01-31T02:06:08.618Z,-2.80
2019-01-31T02:07:27.509Z,-2.90
2019-01-31T02:08:38.067Z,-2.90
2019-01-31T02:10:00.382Z,-3.00
2019-01-31T02:11:12.464Z,-3.00
2019-01-31T02:12:31.845Z,-3.00
2019-01-31T02:13:35.243Z,-3.00
2019-01-31T02:14:20.413Z,-3.00
2019-01-31T02:15:35.539Z,-3.00
2019-01-31T02:16:56.556Z,-3.00
2019-01-31T02:17:43.745Z,-3.00
2019-01-31T02:18:49.107Z,-3.00
2019-01-31T02:19:57.929Z,-3.00
2019-01-31T02:21:19.701Z,-3.00
2019-01-31T02:22:21.879Z,-3.10
2019-01-31T02:23:31.276Z,-3.00
2019-01-31T02:24:23.845Z,-3.00
2019-01-31T02:25:20.973Z,-3.00
2019-01-31T02:26:23.613Z,-3.00
2019-01-31T02:27:31.695Z,-2.90
2019-01-31T02:28:56.809Z,-2.90
2019-01-31T02:30:12.072Z,-2.90
2019-01-31T02:31:52.629Z,-2.90
2019-01-31T02:33:04.327Z,-2.90
2019-01-31T02:34:15.478Z,-2.80
2019-01-31T02:35:20.938Z,-2.80
2019-01-31T02:36:36.895Z,-2.80
2019-01-31T02:37:43.463Z,-2.80
2019-01-31T02:39:06.096Z,-2.80
2019-01-31T02:40:03.547Z,-2.80
2019-01-31T02:40:46.121Z,-2.80
2019-01-31T02:41:55.628Z,-2.80
2019-01-31T02:43:07.761Z,-2.80
2019-01-31T02:44:06.770Z,-2.80
2019-01-31T02:45:23.035Z,-2.80
2019-01-31T02:47:45.170Z,-2.90
2019-01-31T02:48:48.005Z,-2.90
2019-01-31T02:49:51.730Z,-2.90
2019-01-31T02:51:19.927Z,-2.90
2019-01-31T02:52:46.428Z,-2.90
2019-01-31T02:53:58.649Z,-2.90
2019-01-31T02:55:04.363Z,-2.90
2019-01-31T02:56:26.387Z,-2.90
2019-01-31T02:57:29.484Z,-2.90
2019-01-31T02:58:24.709Z,-2.90
2019-01-31T02:59:49.849Z,-3.00
2019-01-31T03:00:53.303Z,-3.00
2019-01-31T03:01:52.588Z,-3.00
2019-01-31T03:02:41.714Z,-2.90
2019-01-31T03:04:12.535Z,-2.90
2019-01-31T03:05:16.808Z,-2.90
2019-01-31T03:06:13.736Z,-2.90
2019-01-31T03:07:15.257Z,-2.90
2019-01-31T03:08:22.720Z,-2.90
2019-01-31T03:09:16.971Z,-2.90
2019-01-31T03:10:30.636Z,-2.90
2019-01-31T03:11:42.458Z,-2.90
2019-01-31T03:13:07.667Z,-2.90
2019-01-31T03:14:11.748Z,-2.90
2019-01-31T03:15:27.657Z,-2.90
2019-01-31T03:16:38.320Z,-2.90
2019-01-31T03:17:50.870Z,-2.90
2019-01-31T03:18:52.327Z,-2.90
2019-01-31T03:20:20.909Z,-2.90
2019-01-31T03:21:17.662Z,-2.90
2019-01-31T03:22:21.662Z,-2.90
2019-01-31T03:23:32.319Z,-2.90
2019-01-31T03:24:20.522Z,-2.90
2019-01-31T03:25:43.566Z,-2.90
2019-01-31T03:26:46.066Z,-2.80
2019-01-31T03:27:58.819Z,-2.80
2019-01-31T03:29:02.124Z,-2.80
2019-01-31T03:30:16.896Z,-2.80
2019-01-31T03:31:27.640Z,-2.80
2019-01-31T03:32:23.250Z,-2.80
2019-01-31T03:33:21.200Z,-2.80
2019-01-31T03:34:26.660Z,-2.80
2019-01-31T03:35:22.604Z,-2.80
2019-01-31T03:36:45.069Z,-2.80
2019-01-31T03:37:40.862Z,-2.80
2019-01-31T03:39:00.524Z,-2.80
2019-01-31T03:40:22.905Z,-2.70
2019-01-31T03:41:31.619Z,-2.70
2019-01-31T03:43:05.868Z,-2.80
2019-01-31T03:44:19.970Z,-2.80
2019-01-31T03:45:34.588Z,-2.70
2019-01-31T03:46:42.257Z,-2.70
2019-01-31T03:47:50.713Z,-2.70
2019-01-31T03:48:47.716Z,-2.70
2019-01-31T03:50:14.995Z,-2.70
2019-01-31T03:51:13.962Z,-2.70
2019-01-31T03:52:15.792Z,-2.60
2019-01-31T03:53:31.873Z,-2.60
2019-01-31T03:54:57.991Z,-2.60
2019-01-31T03:56:05.171Z,-2.60
2019-01-31T03:57:17.461Z,-2.60
2019-01-31T03:58:46.994Z,-2.60
2019-01-31T03:59:45.877Z,-2.60
2019-01-31T04:00:47.306Z,-2.60
2019-01-31T04:02:15.763Z,-2.60
2019-01-31T04:03:08.775Z,-2.60
2019-01-31T04:04:10.668Z,-2.60
2019-01-31T04:05:27.651Z,-2.60
2019-01-31T04:06:10.244Z,-2.50
2019-01-31T04:06:45.758Z,-2.50
2019-01-31T04:07:21.420Z,-2.50
2019-01-31T04:07:56.933Z,-2.50
2019-01-31T04:08:32.476Z,-2.50
2019-01-31T04:09:11.422Z,-2.40
2019-01-31T04:09:47.019Z,-2.40
2019-01-31T04:10:22.709Z,-2.40
2019-01-31T04:10:58.281Z,-2.40
2019-01-31T04:11:33.900Z,-2.40
2019-01-31T04:12:09.418Z,-2.40
2019-01-31T04:12:45.136Z,-2.30
2019-01-31T04:13:20.836Z,-2.30
2019-01-31T04:13:56.388Z,-2.30
2019-01-31T04:14:31.941Z,-2.30
2019-01-31T04:15:08.876Z,-2.30
2019-01-31T04:15:44.496Z,-2.30
2019-01-31T04:16:20.019Z,-2.30
2019-01-31T04:16:55.792Z,-2.30
2019-01-31T04:17:31.378Z,-2.30
2019-01-31T04:18:07.616Z,-2.30
2019-01-31T04:18:43.290Z,-2.30
2019-01-31T04:19:18.777Z,-2.30
2019-01-31T04:19:54.237Z,-2.40
2019-01-31T04:20:29.766Z,-2.30
2019-01-31T04:21:05.311Z,-2.30
2019-01-31T04:21:41.157Z,-2.30
2019-01-31T04:22:16.794Z,-2.30
2019-01-31T04:22:52.407Z,-2.30
2019-01-31T04:23:28.152Z,-2.30
2019-01-31T04:24:03.834Z,-2.30
2019-01-31T04:24:39.431Z,-2.30
2019-01-31T04:25:14.932Z,-2.30
2019-01-31T04:25:50.929Z,-2.30
2019-01-31T04:26:26.456Z,-2.30
2019-01-31T04:27:02.003Z,-2.30
2019-01-31T04:27:37.667Z,-2.30
2019-01-31T04:28:13.410Z,-2.30
2019-01-31T04:28:48.949Z,-2.30
2019-01-31T04:29:24.689Z,-2.30
2019-01-31T04:30:00.335Z,-2.30
2019-01-31T04:30:35.998Z,-2.30
2019-01-31T04:31:11.795Z,-2.30
2019-01-31T04:31:47.363Z,-2.30
2019-01-31T04:32:22.976Z,-2.30
2019-01-31T04:32:58.517Z,-2.30
2019-01-31T04:33:34.255Z,-2.30
2019-01-31T04:34:10.037Z,-2.30
2019-01-31T04:34:46.224Z,-2.30
2019-01-31T04:35:21.659Z,-2.30
2019-01-31T04:35:57.103Z,-2.30
2019-01-31T04:36:32.598Z,-2.30
2019-01-31T04:37:08.213Z,-2.20
2019-01-31T04:37:43.812Z,-2.20
2019-01-31T04:38:20.006Z,-2.20
2019-01-31T04:38:56.302Z,-2.20
2019-01-31T04:39:31.915Z,-2.20
2019-01-31T04:40:08.069Z,-2.20
2019-01-31T04:40:43.615Z,-2.20
2019-01-31T04:41:19.298Z,-2.20
2019-01-31T04:41:54.886Z,-2.20
2019-01-31T04:42:30.421Z,-2.20
2019-01-31T04:43:06.065Z,-2.20
2019-01-31T04:43:41.601Z,-2.20
2019-01-31T04:44:17.137Z,-2.20
2019-01-31T04:44:52.747Z,-2.20
2019-01-31T04:45:28.485Z,-2.10
2019-01-31T04:46:04.025Z,-2.20
2019-01-31T04:46:39.763Z,-2.20
2019-01-31T04:47:15.309Z,-2.20
2019-01-31T04:47:50.935Z,-2.20
2019-01-31T04:48:26.664Z,-2.20
2019-01-31T04:49:02.307Z,-2.20
2019-01-31T04:49:37.854Z,-2.20
2019-01-31T04:50:15.149Z,-2.20
2019-01-31T04:50:50.763Z,-2.20
2019-01-31T04:51:26.270Z,-2.10
2019-01-31T04:52:01.944Z,-2.10
2019-01-31T04:52:37.587Z,-2.10
2019-01-31T04:53:13.240Z,-2.10
2019-01-31T04:53:48.914Z,-2.10
2019-01-31T04:54:24.589Z,-2.10
2019-01-31T04:55:00.283Z,-2.20
2019-01-31T04:55:36.095Z,-2.10
2019-01-31T04:56:11.784Z,-2.20
2019-01-31T04:56:47.528Z,-2.10
2019-01-31T04:57:23.175Z,-2.10
2019-01-31T04:57:58.602Z,-2.10
2019-01-31T04:58:34.238Z,-2.10
2019-01-31T04:59:09.773Z,-2.10
2019-01-31T04:59:45.384Z,-2.10
2019-01-31T05:00:21.112Z,-2.10
2019-01-31T05:00:56.718Z,-2.20
2019-01-31T05:01:32.287Z,-2.20
2019-01-31T05:02:08.138Z,-2.20
2019-01-31T05:02:43.867Z,-2.20
2019-01-31T05:03:19.303Z,-2.10
2019-01-31T05:03:54.936Z,-2.20
2019-01-31T05:04:30.472Z,-2.20
2019-01-31T05:05:07.811Z,-2.20
2019-01-31T05:05:43.290Z,-2.20
2019-01-31T05:06:18.828Z,-2.20
2019-01-31T05:06:54.363Z,-2.20
2019-01-31T05:07:29.865Z,-2.20
2019-01-31T05:08:05.400Z,-2.20
2019-01-31T05:08:41.074Z,-2.20
2019-01-31T05:09:16.584Z,-2.10
2019-01-31T05:09:52.212Z,-2.20
2019-01-31T05:10:27.935Z,-2.20
2019-01-31T05:11:03.358Z,-2.20
2019-01-31T05:11:38.805Z,-2.20
2019-01-31T05:12:14.306Z,-2.20
2019-01-31T05:12:49.865Z,-2.20
2019-01-31T05:13:25.401Z,-2.20
2019-01-31T05:14:01.406Z,-2.20
2019-01-31T05:14:36.911Z,-2.20
2019-01-31T05:15:14.258Z,-2.20
2019-01-31T05:15:50.008Z,-2.10
2019-01-31T05:16:25.670Z,-2.10
2019-01-31T05:17:01.340Z,-2.10
2019-01-31T05:17:37.004Z,-2.10
2019-01-31T05:18:12.655Z,-2.10
2019-01-31T05:18:48.188Z,-2.10
2019-01-31T05:19:23.892Z,-2.10
2019-01-31T05:19:59.355Z,-2.10
2019-01-31T05:20:34.887Z,-2.10
2019-01-31T05:21:10.603Z,-2.10
2019-01-31T05:21:46.174Z,-2.10
2019-01-31T05:22:21.877Z,-2.10
2019-01-31T05:22:58.166Z,-2.20
2019-01-31T05:23:33.759Z,-2.20
2019-01-31T05:24:09.274Z,-2.20
2019-01-31T05:24:44.979Z,-2.20
2019-01-31T05:25:21.411Z,-2.20
2019-01-31T05:25:57.127Z,-2.20
2019-01-31T05:26:32.873Z,-2.20
2019-01-31T05:27:08.475Z,-2.20
2019-01-31T05:27:43.924Z,-2.30
2019-01-31T05:28:19.348Z,-2.30
2019-01-31T05:28:54.768Z,-2.30
2019-01-31T05:29:30.314Z,-2.30
2019-01-31T05:30:06.291Z,-2.30
2019-01-31T05:30:41.946Z,-2.30
2019-01-31T05:31:17.606Z,-2.30
2019-01-31T05:31:53.173Z,-2.30
2019-01-31T05:32:28.711Z,-2.30
2019-01-31T05:33:04.357Z,-2.30
2019-01-31T05:33:39.855Z,-2.30
2019-01-31T05:34:15.547Z,-2.30
2019-01-31T05:34:51.059Z,-2.30
2019-01-31T05:35:26.775Z,-2.30
2019-01-31T05:36:02.284Z,-2.20
2019-01-31T05:36:37.842Z,-2.20
2019-01-31T05:37:13.611Z,-2.20
2019-01-31T05:37:49.184Z,-2.20
2019-01-31T05:38:24.779Z,-2.20
2019-01-31T05:39:01.076Z,-2.20
2019-01-31T05:39:36.810Z,-2.20
2019-01-31T05:40:14.291Z,-2.20
2019-01-31T05:40:55.716Z,-2.20
2019-01-31T05:41:27.101Z,-2.20
2019-01-31T05:42:02.627Z,-2.20
2019-01-31T05:42:38.415Z,-2.20
2019-01-31T05:43:14.045Z,-2.20
2019-01-31T05:43:49.546Z,-2.20
2019-01-31T05:44:25.116Z,-2.20
2019-01-31T05:45:00.667Z,-2.20
2019-01-31T05:45:36.162Z,-2.20
2019-01-31T05:46:11.930Z,-2.20
2019-01-31T05:46:47.549Z,-2.20
2019-01-31T05:47:23.270Z,-2.20
2019-01-31T05:47:59.002Z,-2.20
2019-01-31T05:48:34.644Z,-2.20
2019-01-31T05:49:10.175Z,-2.20
2019-01-31T05:49:45.573Z,-2.20
2019-01-31T05:50:21.268Z,-2.20
2019-01-31T05:50:56.812Z,-2.20
2019-01-31T05:51:32.595Z,-2.30
2019-01-31T05:52:08.285Z,-2.30
2019-01-31T05:52:43.933Z,-2.30
2019-01-31T05:53:19.428Z,-2.30
2019-01-31T05:53:55.100Z,-2.30
2019-01-31T05:54:30.676Z,-2.30
2019-01-31T05:55:07.209Z,-2.30
2019-01-31T05:55:42.748Z,-2.30
2019-01-31T05:56:18.268Z,-2.30
2019-01-31T05:56:53.988Z,-2.30
2019-01-31T05:57:29.556Z,-2.30
2019-01-31T05:58:05.122Z,-2.30
2019-01-31T05:58:40.675Z,-2.30
2019-01-31T05:59:16.339Z,-2.30
2019-01-31T05:59:52.268Z,-2.30
2019-01-31T06:00:30.845Z,-2.30
2019-01-31T06:01:06.844Z,-2.30
2019-01-31T06:01:42.728Z,-2.20
2019-01-31T06:02:18.341Z,-2.30
2019-01-31T06:02:54.095Z,-2.30
2019-01-31T06:03:29.619Z,-2.20
2019-01-31T06:04:05.443Z,-2.20
2019-01-31T06:04:40.899Z,-2.20
2019-01-31T06:05:16.686Z,-2.20
2019-01-31T06:05:52.571Z,-2.20
2019-01-31T06:06:28.209Z,-2.30
2019-01-31T06:07:10.890Z,-2.20
2019-01-31T06:07:40.992Z,-2.30
2019-01-31T06:08:16.752Z,-2.30
2019-01-31T06:08:52.296Z,-2.30
2019-01-31T06:09:28.079Z,-2.30
2019-01-31T06:10:03.760Z,-2.30
2019-01-31T06:10:39.836Z,-2.30
2019-01-31T06:11:15.425Z,-2.30
2019-01-31T06:11:51.035Z,-2.30
2019-01-31T06:12:26.819Z,-2.30
2019-01-31T06:13:02.394Z,-2.20
2019-01-31T06:13:38.185Z,-2.20
2019-01-31T06:14:13.955Z,-2.20
2019-01-31T06:14:49.877Z,-2.20
2019-01-31T06:15:25.522Z,-2.20
2019-01-31T06:16:01.037Z,-2.20
2019-01-31T06:16:36.810Z,-2.20
2019-01-31T06:17:12.395Z,-2.20
2019-01-31T06:17:48.333Z,-2.20
2019-01-31T06:18:24.143Z,-2.20
2019-01-31T06:18:59.747Z,-2.20
2019-01-31T06:19:35.405Z,-2.20
2019-01-31T06:20:13.196Z,-2.20
2019-01-31T06:20:49.068Z,-2.20
2019-01-31T06:21:25.116Z,-2.20
2019-01-31T06:22:00.857Z,-2.20
2019-01-31T06:22:36.442Z,-2.20
2019-01-31T06:23:11.899Z,-2.20
2019-01-31T06:23:47.490Z,-2.20
2019-01-31T06:24:23.012Z,-2.20
2019-01-31T06:24:58.732Z,-2.20
2019-01-31T06:25:34.341Z,-2.20
2019-01-31T06:26:10.209Z,-2.10
2019-01-31T06:26:45.891Z,-2.10
2019-01-31T06:27:21.451Z,-2.10
2019-01-31T06:27:56.933Z,-2.10
2019-01-31T06:28:32.587Z,-2.10
2019-01-31T06:29:08.325Z,-2.10
2019-01-31T06:29:43.939Z,-2.10
2019-01-31T06:30:19.866Z,-2.10
2019-01-31T06:30:55.510Z,-2.10
2019-01-31T06:31:31.375Z,-2.10
2019-01-31T06:32:07.112Z,-2.10
2019-01-31T06:32:42.646Z,-2.10
2019-01-31T06:33:18.504Z,-2.10
2019-01-31T06:33:54.378Z,-2.10
2019-01-31T06:34:30.764Z,-2.10
2019-01-31T06:35:06.908Z,-2.00
2019-01-31T06:35:42.725Z,-2.00
2019-01-31T06:36:18.140Z,-2.00
2019-01-31T06:36:53.781Z,-2.00
2019-01-31T06:37:30.018Z,-2.00
2019-01-31T06:38:05.704Z,-2.00
2019-01-31T06:38:41.409Z,-2.00
2019-01-31T06:39:17.317Z,-2.00
2019-01-31T06:39:54.179Z,-1.90
2019-01-31T06:40:29.635Z,-2.00
2019-01-31T06:41:05.319Z,-1.90
2019-01-31T06:41:40.882Z,-2.00
2019-01-31T06:42:16.666Z,-1.90
2019-01-31T06:42:52.408Z,-1.90
2019-01-31T06:43:28.038Z,-1.90
2019-01-31T06:44:03.558Z,-1.90
2019-01-31T06:44:39.424Z,-1.90
2019-01-31T06:45:17.477Z,-1.90
2019-01-31T06:45:56.085Z,-1.90
2019-01-31T06:46:30.524Z,-1.90
2019-01-31T06:47:06.252Z,-1.90
2019-01-31T06:47:42.264Z,-1.90
2019-01-31T06:48:18.118Z,-1.90
2019-01-31T06:48:53.823Z,-1.90
2019-01-31T06:49:29.321Z,-1.90
2019-01-31T06:50:05.451Z,-1.90
2019-01-31T06:50:41.209Z,-1.90
2019-01-31T06:51:16.815Z,-1.90
2019-01-31T06:51:52.487Z,-1.90
2019-01-31T06:52:28.019Z,-1.90
2019-01-31T06:53:03.950Z,-1.80
2019-01-31T06:53:39.586Z,-1.80
2019-01-31T06:54:15.366Z,-1.80
2019-01-31T06:54:51.116Z,-1.80
2019-01-31T06:55:26.933Z,-1.90
2019-01-31T06:56:02.568Z,-1.90
2019-01-31T06:56:38.173Z,-1.90
2019-01-31T06:57:13.695Z,-1.90
2019-01-31T06:57:49.398Z,-1.90
2019-01-31T06:58:25.159Z,-1.90
2019-01-31T06:59:00.857Z,-1.90
2019-01-31T06:59:36.522Z,-1.90
2019-01-31T07:00:15.361Z,-1.90
2019-01-31T07:00:51.126Z,-1.90
2019-01-31T07:01:26.916Z,-1.90
2019-01-31T07:02:02.894Z,-1.90
2019-01-31T07:02:38.655Z,-1.80
2019-01-31T07:03:14.559Z,-1.80
2019-01-31T07:03:50.482Z,-1.80
2019-01-31T07:04:26.201Z,-1.80
2019-01-31T07:05:01.891Z,-1.70
2019-01-31T07:05:37.586Z,-1.70
2019-01-31T07:06:13.247Z,-1.70
2019-01-31T07:06:49.454Z,-1.70
2019-01-31T07:07:25.383Z,-1.60
2019-01-31T07:08:01.101Z,-1.60
2019-01-31T07:08:36.910Z,-1.60
2019-01-31T07:09:13.253Z,-1.50
2019-01-31T07:09:48.872Z,-1.50
2019-01-31T07:10:26.704Z,-1.50
2019-01-31T07:11:02.452Z,-1.50
2019-01-31T07:11:38.132Z,-1.40
2019-01-31T07:12:13.826Z,-1.40
2019-01-31T07:12:49.779Z,-1.40
2019-01-31T07:13:25.376Z,-1.40
2019-01-31T07:14:00.951Z,-1.30
2019-01-31T07:14:36.699Z,-1.30
2019-01-31T07:15:13.038Z,-1.30
2019-01-31T07:15:48.871Z,-1.30
2019-01-31T07:16:24.622Z,-1.30
2019-01-31T07:17:00.893Z,-1.30
2019-01-31T07:17:36.397Z,-1.40
2019-01-31T07:18:12.079Z,-1.40
2019-01-31T07:18:47.960Z,-1.30
2019-01-31T07:19:23.670Z,-1.30
2019-01-31T07:19:59.394Z,-1.30
2019-01-31T07:20:35.043Z,-1.30
2019-01-31T07:21:10.723Z,-1.30
2019-01-31T07:21:46.421Z,-1.30
2019-01-31T07:22:22.081Z,-1.30
2019-01-31T07:22:57.722Z,-1.30
2019-01-31T07:23:33.347Z,-1.20
2019-01-31T07:24:09.487Z,-1.20
2019-01-31T07:24:45.426Z,-1.20
2019-01-31T07:25:23.201Z,-1.20
2019-01-31T07:25:58.666Z,-1.20
2019-01-31T07:26:34.263Z,-1.20
2019-01-31T07:27:09.937Z,-1.20
2019-01-31T07:27:45.443Z,-1.10
2019-01-31T07:28:21.101Z,-1.10
2019-01-31T07:28:56.745Z,-1.10
2019-01-31T07:29:32.346Z,-1.10
2019-01-31T07:30:09.287Z,-1.10
2019-01-31T07:30:44.955Z,-1.00
2019-01-31T07:31:20.689Z,-1.00
2019-01-31T07:31:56.385Z,-1.00
2019-01-31T07:32:32.371Z,-1.00
2019-01-31T07:33:08.131Z,-0.90
2019-01-31T07:33:43.732Z,-0.90
2019-01-31T07:34:19.502Z,-0.90
2019-01-31T07:34:55.099Z,-0.80
2019-01-31T07:35:30.745Z,-0.80
2019-01-31T07:36:06.559Z,-0.80
2019-01-31T07:36:42.205Z,-0.80
2019-01-31T07:37:17.795Z,-0.70
2019-01-31T07:37:53.413Z,-0.70
2019-01-31T07:38:29.052Z,-0.70
2019-01-31T07:39:06.225Z,-0.70
2019-01-31T07:39:42.476Z,-0.60
2019-01-31T07:40:19.850Z,-0.60
2019-01-31T07:40:55.598Z,-0.60
2019-01-31T07:41:41.136Z,-0.60
2019-01-31T07:42:08.372Z,-0.60
2019-01-31T07:42:44.124Z,-0.50
2019-01-31T07:43:19.951Z,-0.50
2019-01-31T07:43:55.473Z,-0.50
2019-01-31T07:44:31.121Z,-0.50
2019-01-31T07:45:08.736Z,-0.50
2019-01-31T07:45:44.647Z,-0.40
2019-01-31T07:46:20.419Z,-0.40
2019-01-31T07:46:56.551Z,-0.40
2019-01-31T07:47:32.172Z,-0.30
2019-01-31T07:48:07.975Z,-0.30
2019-01-31T07:48:43.881Z,-0.30
2019-01-31T07:49:19.584Z,-0.20
2019-01-31T07:49:55.347Z,-0.20
2019-01-31T07:50:30.954Z,-0.20
2019-01-31T07:51:06.712Z,-0.20
2019-01-31T07:51:42.655Z,-0.10
2019-01-31T07:52:18.978Z,-0.10
2019-01-31T07:52:54.706Z,-0.10
2019-01-31T07:53:30.352Z,-0.10
2019-01-31T07:54:06.508Z,0.00
2019-01-31T07:54:42.250Z,0.00
2019-01-31T07:55:18.284Z,0.00
2019-01-31T07:55:53.830Z,0.10
2019-01-31T07:56:29.355Z,0.10
2019-01-31T07:57:04.871Z,0.10
2019-01-31T07:57:40.812Z,0.10
2019-01-31T07:58:16.448Z,0.20
2019-01-31T07:58:52.098Z,0.20
2019-01-31T07:59:27.630Z,0.20
2019-01-31T08:00:03.171Z,0.20
2019-01-31T08:00:38.835Z,0.30
2019-01-31T08:01:14.840Z,0.30
2019-01-31T08:01:50.369Z,0.30
2019-01-31T08:02:26.019Z,0.40
2019-01-31T08:03:01.926Z,0.40
2019-01-31T08:03:37.504Z,0.40
2019-01-31T08:04:13.067Z,0.50
2019-01-31T08:04:48.652Z,0.50
2019-01-31T08:05:24.837Z,0.60
2019-01-31T08:06:00.446Z,0.60
2019-01-31T08:06:35.975Z,0.60
2019-01-31T08:07:11.618Z,0.70
2019-01-31T08:07:47.623Z,0.70
2019-01-31T08:08:23.454Z,0.80
2019-01-31T08:08:59.191Z,0.80
2019-01-31T08:09:34.907Z,0.80
2019-01-31T08:10:14.104Z,0.80
2019-01-31T08:10:49.815Z,0.80
2019-01-31T08:11:25.573Z,0.90
2019-01-31T08:12:01.335Z,0.90
2019-01-31T08:12:37.264Z,0.90
2019-01-31T08:13:13.232Z,1.00
2019-01-31T08:13:48.968Z,0.90
2019-01-31T08:14:24.681Z,1.00
2019-01-31T08:15:00.492Z,1.00
2019-01-31T08:15:36.173Z,1.00
2019-01-31T08:16:11.885Z,1.00
2019-01-31T08:16:47.408Z,1.00
2019-01-31T08:17:23.175Z,0.90
2019-01-31T08:17:58.895Z,1.00
2019-01-31T08:18:34.693Z,1.00
2019-01-31T08:19:10.575Z,1.00
2019-01-31T08:19:46.202Z,1.00
2019-01-31T08:20:21.821Z,1.00
2019-01-31T08:20:57.440Z,1.00
2019-01-31T08:21:32.904Z,1.00
2019-01-31T08:22:08.549Z,1.00
2019-01-31T08:22:44.201Z,1.00
2019-01-31T08:23:19.832Z,1.00
2019-01-31T08:23:55.622Z,1.10
2019-01-31T08:24:31.453Z,1.00
2019-01-31T08:25:07.731Z,1.00
2019-01-31T08:25:43.313Z,1.00
2019-01-31T08:26:19.296Z,1.10
2019-01-31T08:26:56.008Z,1.10
2019-01-31T08:27:31.939Z,1.20
2019-01-31T08:28:08.375Z,1.20
2019-01-31T08:28:43.999Z,1.20
2019-01-31T08:29:19.868Z,1.30
2019-01-31T08:29:55.770Z,1.30
2019-01-31T08:30:33.662Z,1.30
2019-01-31T08:31:09.129Z,1.30
2019-01-31T08:31:45.579Z,1.40
2019-01-31T08:32:21.416Z,1.40
2019-01-31T08:32:57.152Z,1.50
2019-01-31T08:33:32.769Z,1.50
2019-01-31T08:34:08.440Z,1.50
2019-01-31T08:34:44.306Z,1.50
2019-01-31T08:35:20.051Z,1.60
2019-01-31T08:35:55.591Z,1.70
2019-01-31T08:36:31.355Z,1.80
2019-01-31T08:37:07.130Z,1.80
2019-01-31T08:37:42.658Z,1.90
2019-01-31T08:38:18.396Z,2.00
2019-01-31T08:38:54.155Z,2.00
2019-01-31T08:39:29.751Z,2.10
2019-01-31T08:40:05.991Z,2.10
2019-01-31T08:40:41.786Z,2.20
2019-01-31T08:41:17.566Z,2.30
2019-01-31T08:42:03.233Z,2.40
2019-01-31T08:42:30.456Z,2.60
2019-01-31T08:43:06.193Z,2.90
2019-01-31T08:43:41.875Z,3.20
2019-01-31T08:44:17.368Z,3.30
2019-01-31T08:44:53.219Z,3.40
2019-01-31T08:45:29.040Z,3.40
2019-01-31T08:46:04.915Z,3.50
2019-01-31T08:46:40.749Z,3.50
2019-01-31T08:47:16.289Z,3.50
2019-01-31T08:47:52.057Z,3.50
2019-01-31T08:48:27.564Z,3.50
2019-01-31T08:49:03.301Z,3.50
2019-01-31T08:49:39.090Z,3.40
2019-01-31T08:50:17.806Z,3.40
2019-01-31T08:50:53.579Z,3.40
2019-01-31T08:51:29.297Z,3.50
2019-01-31T08:52:05.059Z,3.50
2019-01-31T08:52:41.689Z,3.50
2019-01-31T08:53:17.542Z,3.60
2019-01-31T08:53:53.325Z,3.60
2019-01-31T08:54:29.046Z,3.50
2019-01-31T08:55:05.698Z,3.50
2019-01-31T08:55:41.256Z,3.60
2019-01-31T08:56:16.952Z,3.60
2019-01-31T08:56:52.682Z,3.50
2019-01-31T08:57:28.231Z,3.50
2019-01-31T08:58:04.163Z,3.50
2019-01-31T08:58:39.944Z,3.50
2019-01-31T08:59:15.595Z,3.50
2019-01-31T08:59:51.212Z,3.40
2019-01-31T09:00:31.025Z,3.40
2019-01-31T09:01:06.676Z,3.40
2019-01-31T09:01:42.964Z,3.40
2019-01-31T09:02:18.777Z,3.40
2019-01-31T09:02:54.490Z,3.40
2019-01-31T09:03:30.348Z,3.50
2019-01-31T09:04:06.107Z,3.50
2019-01-31T09:04:41.694Z,3.50
2019-01-31T09:05:17.823Z,3.50
2019-01-31T09:05:53.590Z,3.60
2019-01-31T09:06:29.499Z,3.60
2019-01-31T09:07:05.507Z,3.60
2019-01-31T09:07:41.742Z,3.60
2019-01-31T09:08:17.540Z,3.60
2019-01-31T09:08:53.300Z,3.60
2019-01-31T09:09:29.040Z,3.60
2019-01-31T09:10:05.397Z,3.70
2019-01-31T09:10:42.063Z,3.80
2019-01-31T09:11:18.099Z,3.90
2019-01-31T09:11:53.860Z,4.00
2019-01-31T09:12:29.779Z,4.10
2019-01-31T09:13:10.523Z,4.20
2019-01-31T09:13:46.315Z,4.30
2019-01-31T09:14:22.186Z,4.30
2019-01-31T09:14:58.641Z,4.40
2019-01-31T09:15:34.463Z,4.40
2019-01-31T09:16:11.067Z,4.50
2019-01-31T09:16:47.688Z,4.50
2019-01-31T09:17:23.998Z,4.50
2019-01-31T09:18:00.279Z,4.70
2019-01-31T09:18:36.468Z,4.80
2019-01-31T09:19:12.421Z,4.90
2019-01-31T09:19:48.303Z,5.10
2019-01-31T09:20:50.914Z,5.20
2019-01-31T09:21:48.056Z,5.20
2019-01-31T09:22:53.849Z,5.30
2019-01-31T09:24:03.604Z,5.40
2019-01-31T09:25:44.402Z,5.50
2019-01-31T09:26:52.462Z,5.80
2019-01-31T09:28:04.475Z,6.40
2019-01-31T09:29:22.959Z,6.20
2019-01-31T09:30:32.749Z,6.00
2019-01-31T09:31:49.586Z,6.00
2019-01-31T09:32:48.851Z,5.90
2019-01-31T09:33:43.753Z,5.70
2019-01-31T09:34:43.992Z,6.10
2019-01-31T09:35:42.051Z,6.40
2019-01-31T09:37:02.183Z,6.30
2019-01-31T09:38:14.883Z,6.10
2019-01-31T09:39:28.288Z,6.10
2019-01-31T09:40:30.223Z,6.60
2019-01-31T09:41:32.761Z,6.80
2019-01-31T09:42:26.956Z,6.50
2019-01-31T09:43:24.352Z,6.10
2019-01-31T09:44:33.262Z,5.90
2019-01-31T09:45:59.477Z,5.70
2019-01-31T09:46:46.588Z,5.70
2019-01-31T09:48:08.090Z,5.80
2019-01-31T09:49:15.687Z,5.80
2019-01-31T09:50:44.100Z,6.00
2019-01-31T09:52:06.067Z,5.90
2019-01-31T09:53:27.887Z,6.10
2019-01-31T09:54:14.436Z,6.00
2019-01-31T09:55:21.147Z,6.10
2019-01-31T09:56:43.366Z,6.20
2019-01-31T09:58:24.166Z,6.30
2019-01-31T09:59:48.406Z,6.70
2019-01-31T10:00:49.756Z,7.00
2019-01-31T10:02:14.425Z,7.30
2019-01-31T10:03:29.394Z,7.50